Time;durP1;ratioP1;P1;durP2;ratioP2;P2;SDS_P1;SDS_P2;PMS_P1;PMS_P2;Temp;Humidity;BMP_temperature;BMP_pressure;BME280_temperature;BME280_humidity;BME280_pressure;Samples;Min_cycle;Max_cycle;Signal;HPM_P1;HPM_P2
2021/11/30 00:02:24;;;;;;;0.93;0.30;;;;;;;7.26;100.00;96041.00;4942883;29;20062;-61
2021/11/30 00:05:09;;;;;;;1.35;0.30;;;;;;;7.29;100.00;96026.78;4940888;29;20058;-61
2021/11/30 00:07:56;;;;;;;0.35;0.20;;;;;;;7.26;100.00;96016.44;4939639;28;20311;-60
2021/11/30 00:10:44;;;;;;;0.20;0.13;;;;;;;7.23;100.00;95996.41;4927890;29;20058;-62
2021/11/30 00:13:30;;;;;;;0.30;0.20;;;;;;;7.31;100.00;95983.56;4941275;29;20554;-67
2021/11/30 00:16:16;;;;;;;0.55;0.20;;;;;;;7.40;100.00;95976.84;4945736;29;20054;-63
2021/11/30 00:19:00;;;;;;;;;;;;;;;7.42;100.00;95951.22;4939577;29;20050;-58
2021/11/30 00:21:45;;;;;;;0.50;0.30;;;;;;;7.46;100.00;95934.25;4946631;29;19981;-60
2021/11/30 00:24:30;;;;;;;1.65;0.30;;;;;;;7.47;100.00;95926.25;4945372;29;20043;-59
2021/11/30 00:27:17;;;;;;;0.60;0.30;;;;;;;7.55;100.00;95909.91;4948308;28;20112;-57
2021/11/30 00:30:02;;;;;;;0.60;0.30;;;;;;;7.57;100.00;95889.56;4988057;28;20196;-59
2021/11/30 00:32:48;;;;;;;0.38;0.20;;;;;;;7.57;100.00;95889.56;4984279;28;20049;-61
2021/11/30 00:35:33;;;;;;;0.40;0.30;;;;;;;7.60;100.00;95869.09;4987501;28;20061;-58
2021/11/30 00:38:18;;;;;;;0.98;0.28;;;;;;;7.63;100.00;95853.06;4986390;28;20108;-58
2021/11/30 00:41:03;;;;;;;1.20;0.40;;;;;;;7.63;100.00;95833.78;4984531;28;20080;-60
2021/11/30 00:43:48;;;;;;;0.40;0.20;;;;;;;7.53;100.00;95827.50;4983451;28;20052;-60
2021/11/30 00:46:34;;;;;;;0.20;0.20;;;;;;;7.61;100.00;95809.34;4958161;28;20053;-67
2021/11/30 00:49:21;;;;;;;0.52;0.22;;;;;;;7.60;100.00;95778.66;4973867;28;20517;-60
2021/11/30 00:52:06;;;;;;;0.10;0.10;;;;;;;7.64;100.00;95783.59;4982919;28;20410;-62
2021/11/30 00:54:51;;;;;;;0.20;0.20;;;;;;;7.60;100.00;95765.50;4986536;28;20089;-59
2021/11/30 00:57:41;;;;;;;0.90;0.28;;;;;;;7.53;100.00;95748.44;4986843;28;20357;-59
2021/11/30 01:00:26;;;;;;;1.52;0.15;;;;;;;7.65;100.00;95737.00;4986089;28;20061;-61
2021/11/30 01:03:10;;;;;;;0.30;0.13;;;;;;;7.75;100.00;95716.94;4985739;28;20081;-64
2021/11/30 01:05:54;;;;;;;0.75;0.30;;;;;;;7.81;100.00;95705.94;4985324;28;20068;-64
2021/11/30 01:08:39;;;;;;;0.30;0.20;;;;;;;7.80;100.00;95705.06;5000756;28;20073;-59
2021/11/30 01:11:23;;;;;;;0.10;0.10;;;;;;;7.81;100.00;95679.56;4996493;28;20100;-61
2021/11/30 01:14:08;;;;;;;0.50;0.22;;;;;;;7.88;100.00;95667.63;4983485;28;20189;-61
2021/11/30 01:16:53;;;;;;;0.32;0.20;;;;;;;7.96;100.00;95650.25;4999250;28;20088;-62
2021/11/30 01:19:38;;;;;;;0.25;0.22;;;;;;;7.99;100.00;95646.56;4987061;28;20505;-66
2021/11/30 01:22:22;;;;;;;0.73;0.20;;;;;;;7.93;100.00;95624.13;4986403;28;20053;-62
2021/11/30 01:25:08;;;;;;;1.08;0.30;;;;;;;7.94;100.00;95610.00;4980257;28;20053;-61
2021/11/30 01:27:53;;;;;;;0.40;0.20;;;;;;;7.95;100.00;95600.28;4983284;28;20077;-61
2021/11/30 01:30:38;;;;;;;0.82;0.30;;;;;;;7.97;100.00;95579.91;4982691;28;20450;-66
2021/11/30 01:33:23;;;;;;;1.85;0.40;;;;;;;8.02;100.00;95575.09;4979239;28;20057;-60
2021/11/30 01:36:08;;;;;;;0.60;0.20;;;;;;;7.98;100.00;95560.47;4972848;28;20108;-61
2021/11/30 01:38:53;;;;;;;0.40;0.32;;;;;;;8.04;100.00;95546.84;4983924;28;20133;-60
2021/11/30 01:41:40;;;;;;;0.45;0.30;;;;;;;8.02;100.00;95544.31;4977517;28;20068;-58
2021/11/30 01:45:19;;;;;;;1.38;0.45;;;;;;;8.06;100.00;95531.72;4978375;28;20426;-63
2021/11/30 01:50:14;;;;;;;1.00;0.40;;;;;;;8.13;100.00;95509.19;4972336;28;20433;-63
2021/11/30 01:52:59;;;;;;;0.85;0.50;;;;;;;8.22;100.00;95496.16;4968636;28;20877;-61
2021/11/30 01:55:45;;;;;;;0.50;0.40;;;;;;;8.27;100.00;95486.06;4980947;28;20061;-58
2021/11/30 01:58:30;;;;;;;0.60;0.40;;;;;;;8.39;100.00;95487.75;4983254;28;20128;-63
2021/11/30 02:01:15;;;;;;;0.60;0.52;;;;;;;8.38;100.00;95454.41;4978396;28;20143;-59
2021/11/30 02:04:00;;;;;;;1.63;0.60;;;;;;;8.51;100.00;95449.00;4978648;28;20094;-59
2021/11/30 02:06:45;;;;;;;0.52;0.50;;;;;;;8.64;100.00;95433.84;4982469;28;20045;-64
2021/11/30 02:09:31;;;;;;;1.10;1.00;;;;;;;8.73;100.00;95448.91;4986578;28;20096;-63
2021/11/30 02:12:16;;;;;;;1.17;1.08;;;;;;;8.80;100.00;95444.81;4976722;28;20132;-64
2021/11/30 02:15:02;;;;;;;1.77;1.40;;;;;;;8.82;100.00;95433.16;4985365;28;20112;-61
2021/11/30 02:17:47;;;;;;;2.28;1.58;;;;;;;8.89;100.00;95409.72;4987553;28;20728;-70
2021/11/30 02:20:36;;;;;;;2.10;1.95;;;;;;;8.96;100.00;95417.03;4979777;28;20060;-66
2021/11/30 02:24:04;;;;;;;3.03;2.13;;;;;;;9.07;100.00;95403.75;4983489;28;20141;-63
2021/11/30 02:26:30;;;;;;;2.88;2.20;;;;;;;9.07;100.00;95409.03;4978184;28;20185;-64
2021/11/30 02:29:15;;;;;;;4.18;2.53;;;;;;;9.17;100.00;95399.38;4980588;28;20073;-68
2021/11/30 02:31:59;;;;;;;3.40;2.40;;;;;;;9.26;100.00;95401.25;4978515;28;20129;-61
2021/11/30 02:34:44;;;;;;;4.35;2.40;;;;;;;9.33;100.00;95407.72;4975249;28;20049;-57
2021/11/30 02:37:36;;;;;;;;;;;;;;;9.36;100.00;95401.31;4986531;28;20407;-60
2021/11/30 02:40:21;;;;;;;2.60;2.05;;;;;;;9.39;100.00;95386.03;4979543;28;19948;-60
2021/11/30 02:43:05;;;;;;;4.18;2.95;;;;;;;9.45;100.00;95398.75;4981302;28;20514;-64
2021/11/30 02:45:50;;;;;;;5.80;3.03;;;;;;;9.53;100.00;95385.69;4981571;28;20049;-59
2021/11/30 02:48:34;;;;;;;9.85;3.70;;;;;;;9.62;100.00;95378.81;4984098;28;20522;-58
2021/11/30 02:51:19;;;;;;;5.07;3.33;;;;;;;9.67;100.00;95376.59;4986814;28;20426;-62
2021/11/30 02:54:09;;;;;;;7.72;3.67;;;;;;;9.73;100.00;95375.22;4982318;28;20589;-59
2021/11/30 02:56:57;;;;;;;8.77;4.30;;;;;;;9.74;100.00;95382.19;4981243;28;20065;-59
2021/11/30 02:59:46;;;;;;;6.63;3.60;;;;;;;9.73;100.00;95376.06;4985309;28;20553;-64
2021/11/30 03:02:30;;;;;;;6.63;3.55;;;;;;;9.65;100.00;95377.69;4982907;28;20529;-57
2021/11/30 03:05:14;;;;;;;4.32;3.38;;;;;;;9.67;100.00;95378.38;4983141;28;20094;-63
2021/11/30 03:07:59;;;;;;;2.65;2.15;;;;;;;9.62;100.00;95370.88;4966556;28;20080;-65
2021/11/30 03:10:43;;;;;;;2.97;1.10;;;;;;;9.55;100.00;95406.72;4984999;28;20065;-68
2021/11/30 03:13:27;;;;;;;0.82;0.52;;;;;;;9.61;100.00;95381.56;4973823;28;20069;-62
2021/11/30 03:16:17;;;;;;;0.40;0.40;;;;;;;9.52;100.00;95399.91;4986677;28;20081;-62
2021/11/30 03:19:03;;;;;;;0.38;0.38;;;;;;;9.46;100.00;95405.69;4976996;28;20474;-59
2021/11/30 03:21:48;;;;;;;0.98;0.50;;;;;;;9.41;100.00;95399.97;4970110;28;20085;-61
2021/11/30 03:24:34;;;;;;;1.55;0.43;;;;;;;9.34;100.00;95411.19;4980632;28;20097;-60
2021/11/30 03:27:18;;;;;;;0.73;0.20;;;;;;;9.24;100.00;95407.63;4982386;28;20097;-64
2021/11/30 03:30:06;;;;;;;0.63;0.50;;;;;;;9.17;100.00;95404.69;4983994;28;20053;-65
2021/11/30 03:35:54;;;;;;;0.52;0.20;;;;;;;9.09;100.00;95415.03;4979879;28;20050;-62
2021/11/30 03:38:38;;;;;;;0.70;0.20;;;;;;;9.00;100.00;95399.97;4983453;28;20057;-62
2021/11/30 03:41:24;;;;;;;1.23;0.47;;;;;;;8.95;100.00;95433.00;4978230;28;20142;-63
2021/11/30 03:44:09;;;;;;;0.90;0.20;;;;;;;8.88;100.00;95445.88;4985550;28;20049;-68
2021/11/30 03:46:55;;;;;;;0.35;0.25;;;;;;;8.76;100.00;95441.59;4988732;28;20053;-66
2021/11/30 03:49:40;;;;;;;1.00;0.10;;;;;;;8.69;100.00;95436.94;4970529;28;20124;-63
2021/11/30 03:52:24;;;;;;;0.60;0.30;;;;;;;8.64;100.00;95460.22;4988309;28;20119;-63
2021/11/30 03:55:09;;;;;;;0.47;0.30;;;;;;;8.54;100.00;95441.66;4982684;28;20991;-63
2021/11/30 03:57:55;;;;;;;1.15;0.22;;;;;;;8.46;100.00;95433.53;4982341;28;20057;-71
2021/11/30 04:00:40;;;;;;;0.38;0.30;;;;;;;8.41;100.00;95475.28;4981751;28;20142;-68
2021/11/30 04:03:27;;;;;;;;;;;;;;;8.29;100.00;95462.22;4962615;28;20057;-67
2021/11/30 04:06:12;;;;;;;1.30;0.70;;;;;;;8.18;100.00;95486.78;4983803;28;19929;-70
2021/11/30 04:08:56;;;;;;;0.85;0.52;;;;;;;8.06;100.00;95481.63;4984822;28;20049;-66
2021/11/30 04:11:41;;;;;;;3.35;0.80;;;;;;;7.96;100.00;95520.22;4984396;28;20478;-63
2021/11/30 04:14:26;;;;;;;2.70;0.30;;;;;;;7.86;100.00;95508.69;4987052;28;20552;-68
2021/11/30 04:17:11;;;;;;;1.80;0.20;;;;;;;7.77;100.00;95541.88;4988249;28;20423;-73
2021/11/30 04:19:55;;;;;;;0.30;0.10;;;;;;;7.69;100.00;95512.63;4978652;28;20630;-62
2021/11/30 04:22:42;;;;;;;1.00;0.03;;;;;;;7.65;100.00;95520.88;4979111;28;20156;-63
2021/11/30 04:25:26;;;;;;;0.03;0.00;;;;;;;7.62;100.00;95532.50;4988580;28;20104;-64
2021/11/30 04:28:11;;;;;;;0.00;0.00;;;;;;;7.67;100.00;95514.53;4993859;28;20520;-71
2021/11/30 04:30:55;;;;;;;0.17;0.00;;;;;;;7.67;100.00;95559.34;5003170;28;20049;-69
2021/11/30 04:33:40;;;;;;;0.13;0.10;;;;;;;7.61;100.00;95556.34;4969154;28;20194;-63
2021/11/30 04:36:24;;;;;;;0.00;0.00;;;;;;;7.59;100.00;95556.44;4956734;28;20204;-65
2021/11/30 04:39:09;;;;;;;1.17;0.13;;;;;;;7.61;100.00;95561.59;4988108;28;20188;-66
2021/11/30 04:41:54;;;;;;;;;;;;;;;7.58;100.00;95589.03;4986240;28;20049;-64
2021/11/30 04:44:45;;;;;;;1.35;0.10;;;;;;;7.50;100.00;95591.41;4987435;28;19934;-62
2021/11/30 04:47:33;;;;;;;2.55;0.10;;;;;;;7.44;100.00;95604.19;4987104;28;20140;-63
2021/11/30 04:50:23;;;;;;;0.03;0.00;;;;;;;7.43;100.00;95608.59;5000206;28;20100;-65
2021/11/30 04:53:08;;;;;;;0.80;0.10;;;;;;;7.43;100.00;95632.31;4968556;28;20085;-63
2021/11/30 04:55:53;;;;;;;0.63;0.00;;;;;;;7.40;100.00;95623.81;4951058;28;20076;-64
2021/11/30 04:58:37;;;;;;;0.13;0.10;;;;;;;7.36;100.00;95648.69;4974218;28;20301;-62
2021/11/30 05:01:22;;;;;;;0.25;0.10;;;;;;;7.43;100.00;95636.72;4987311;28;20053;-62
2021/11/30 05:04:07;;;;;;;0.63;0.10;;;;;;;7.45;100.00;95708.63;4988465;28;20053;-63
2021/11/30 05:06:52;;;;;;;;;;;;;;;7.50;100.00;95661.69;4988888;28;20153;-62
2021/11/30 05:09:36;;;;;;;0.20;0.10;;;;;;;7.43;100.00;95636.72;4971463;28;19936;-65
2021/11/30 05:12:21;;;;;;;1.63;0.77;;;;;;;7.43;100.00;95681.53;4988672;28;20057;-68
2021/11/30 05:15:07;;;;;;;0.73;0.20;;;;;;;7.49;100.00;95689.84;4983046;28;20088;-64
2021/11/30 05:17:51;;;;;;;0.20;0.20;;;;;;;7.49;100.00;95708.28;4984896;28;20112;-64
2021/11/30 05:20:36;;;;;;;0.00;0.00;;;;;;;7.62;100.00;95700.31;4986177;28;20049;-62
2021/11/30 05:23:28;;;;;;;0.20;0.17;;;;;;;7.58;100.00;95717.31;4986366;28;20439;-63
2021/11/30 05:26:14;;;;;;;0.17;0.10;;;;;;;7.64;100.00;95720.34;4986099;28;20188;-63
2021/11/30 05:28:59;;;;;;;0.25;0.10;;;;;;;7.69;100.00;95718.22;4985714;28;20154;-62
2021/11/30 05:31:43;;;;;;;1.23;0.10;;;;;;;7.61;100.00;95706.56;4986364;28;20053;-66
2021/11/30 05:34:28;;;;;;;1.42;0.20;;;;;;;7.65;100.00;95742.28;4986041;28;20076;-66
2021/11/30 05:37:13;;;;;;;1.55;0.00;;;;;;;7.63;100.00;95733.63;4988849;28;20061;-63
2021/11/30 05:39:58;;;;;;;1.35;0.10;;;;;;;7.69;100.00;95741.94;4988057;28;20525;-64
2021/11/30 05:42:42;;;;;;;0.00;0.00;;;;;;;7.63;100.00;95720.44;4988326;28;20149;-66
2021/11/30 05:45:27;;;;;;;0.08;0.00;;;;;;;7.69;100.00;95764.81;4986327;28;20518;-62
2021/11/30 05:48:11;;;;;;;0.00;0.00;;;;;;;7.60;100.00;95750.50;4968645;28;20498;-65
2021/11/30 05:50:56;;;;;;;0.10;0.00;;;;;;;7.73;100.00;95746.06;4986967;28;20501;-66
2021/11/30 05:53:41;;;;;;;2.50;0.10;;;;;;;7.66;100.00;95797.53;4984778;28;20525;-63
2021/11/30 05:56:26;;;;;;;1.15;0.10;;;;;;;7.50;100.00;95746.84;4987027;28;20061;-65
2021/11/30 05:59:10;;;;;;;0.13;0.05;;;;;;;7.45;100.00;95788.53;4986389;28;20108;-63
2021/11/30 06:01:55;;;;;;;0.40;0.30;;;;;;;7.25;100.00;95769.78;4986990;28;20099;-65
2021/11/30 06:04:39;;;;;;;0.10;0.10;;;;;;;7.24;100.00;95779.47;4967593;28;20069;-66
2021/11/30 06:07:24;;;;;;;0.65;0.10;;;;;;;7.22;100.00;95814.78;4965274;28;20482;-62
2021/11/30 06:10:09;;;;;;;0.38;0.13;;;;;;;7.15;100.00;95795.06;4985441;28;20241;-61
2021/11/30 06:12:53;;;;;;;;;;;;;;;7.05;100.00;95821.22;4985487;28;20061;-65
2021/11/30 06:15:38;;;;;;;0.20;0.20;;;;;;;7.03;100.00;95801.19;4995546;28;19964;-63
2021/11/30 06:18:22;;;;;;;0.75;0.10;;;;;;;6.95;100.00;95962.34;4999051;28;20827;-63
2021/11/30 06:21:15;;;;;;;2.95;0.20;;;;;;;7.01;100.00;95796.03;4986501;28;20053;-61
2021/11/30 06:24:00;;;;;;;0.47;0.20;;;;;;;7.06;100.00;95824.69;4985928;28;20402;-63
2021/11/30 06:26:44;;;;;;;0.17;0.10;;;;;;;6.99;100.00;95805.84;4972096;28;20843;-63
2021/11/30 06:29:29;;;;;;;0.28;0.20;;;;;;;6.84;100.00;95825.31;4981601;28;20072;-64
2021/11/30 06:32:14;;;;;;;0.20;0.13;;;;;;;6.82;100.00;95848.28;4984329;28;20784;-67
2021/11/30 06:34:59;;;;;;;0.93;0.13;;;;;;;6.78;100.00;95867.84;4986066;28;20081;-63
2021/11/30 06:37:48;;;;;;;0.30;0.30;;;;;;;6.76;100.00;95876.81;4985290;28;20133;-63
2021/11/30 06:40:32;;;;;;;0.40;0.25;;;;;;;6.71;100.00;95861.31;4985074;28;20054;-73
2021/11/30 06:43:17;;;;;;;0.32;0.30;;;;;;;6.68;100.00;95897.53;4985640;28;20148;-63
2021/11/30 06:46:01;;;;;;;0.20;0.20;;;;;;;6.67;100.00;95861.59;4982978;28;20156;-63
2021/11/30 06:48:46;;;;;;;0.30;0.30;;;;;;;6.71;100.00;95876.25;4986779;28;20088;-63
2021/11/30 06:51:30;;;;;;;0.50;0.20;;;;;;;6.65;100.00;95859.06;4981584;28;20852;-61
2021/11/30 06:54:15;;;;;;;0.10;0.10;;;;;;;6.59;100.00;95866.53;4971110;28;20120;-64
2021/11/30 06:57:01;;;;;;;0.57;0.15;;;;;;;6.59;100.00;95896.34;4984187;28;20069;-61
2021/11/30 06:59:46;;;;;;;0.32;0.20;;;;;;;6.54;100.00;95876.53;4968702;28;20061;-76
2021/11/30 07:02:31;;;;;;;0.65;0.10;;;;;;;6.60;100.00;95926.13;4986480;28;20104;-63
2021/11/30 07:05:23;;;;;;;0.20;0.20;;;;;;;6.59;100.00;95896.34;4996199;28;20133;-63
2021/11/30 07:08:18;;;;;;;0.25;0.20;;;;;;;6.59;100.00;95890.22;4986360;28;20097;-64
2021/11/30 07:11:07;;;;;;;0.63;0.20;;;;;;;6.54;100.00;95889.69;4966313;28;20137;-72
2021/11/30 07:13:52;;;;;;;1.58;0.30;;;;;;;6.46;100.00;95897.25;4981687;28;20141;-63
2021/11/30 07:16:38;;;;;;;2.85;0.80;;;;;;;6.44;100.00;95899.16;4985754;28;20100;-64
2021/11/30 07:19:24;;;;;;;1.83;0.77;;;;;;;6.24;100.00;95887.28;5001174;28;20069;-64
2021/11/30 07:22:09;;;;;;;3.90;1.20;;;;;;;6.19;100.00;95893.75;4998707;28;20097;-75
2021/11/30 07:24:54;;;;;;;;;;;;;;;6.14;100.00;95896.72;4990246;28;20054;-62
2021/11/30 07:27:39;;;;;;;4.82;0.68;;;;;;;6.05;100.00;95918.31;4987406;28;20420;-63
2021/11/30 07:30:24;;;;;;;0.63;0.40;;;;;;;5.90;100.00;95932.44;4984367;28;20138;-62
2021/11/30 07:33:08;;;;;;;0.47;0.20;;;;;;;5.86;100.00;95898.56;4989444;28;20045;-61
2021/11/30 07:35:53;;;;;;;1.13;0.30;;;;;;;5.82;100.00;95915.44;4989500;28;20061;-62
2021/11/30 07:38:40;;;;;;;0.30;0.30;;;;;;;6.00;100.00;95890.63;4974944;28;20140;-60
2021/11/30 07:41:25;;;;;;;3.13;0.30;;;;;;;5.99;100.00;95881.06;4986783;28;20440;-69
2021/11/30 07:44:09;;;;;;;0.45;0.38;;;;;;;6.11;100.00;95883.75;4985458;28;20065;-62
2021/11/30 07:46:53;;;;;;;0.47;0.30;;;;;;;6.12;100.00;95882.81;4984942;28;20481;-63
2021/11/30 07:49:38;;;;;;;0.38;0.30;;;;;;;5.99;100.00;95895.06;4987212;28;20596;-62
2021/11/30 07:52:22;;;;;;;1.13;0.52;;;;;;;5.93;100.00;95900.69;4985438;28;20064;-63
2021/11/30 07:55:10;;;;;;;0.95;0.30;;;;;;;5.86;100.00;95888.91;4985457;28;20465;-61
2021/11/30 07:57:54;;;;;;;0.57;0.40;;;;;;;5.79;100.00;95865.69;4986360;28;20069;-71
2021/11/30 08:00:40;;;;;;;0.30;0.30;;;;;;;5.82;100.00;95886.53;4986269;28;20097;-64
2021/11/30 08:03:25;;;;;;;0.30;0.20;;;;;;;5.83;100.00;95885.59;4984931;28;20054;-62
2021/11/30 08:06:13;;;;;;;0.98;0.40;;;;;;;5.84;100.00;95874.13;4984593;28;20049;-62
2021/11/30 08:08:58;;;;;;;0.30;0.20;;;;;;;6.03;100.00;95886.03;4986653;28;20057;-59
2021/11/30 08:11:42;;;;;;;0.65;0.43;;;;;;;5.87;100.00;95895.84;4986018;28;21097;-63
2021/11/30 08:14:28;;;;;;;0.32;0.20;;;;;;;5.73;100.00;95856.38;4987411;28;20538;-66
2021/11/30 08:17:14;;;;;;;0.30;0.20;;;;;;;5.52;100.00;95905.03;4973352;28;20093;-64
2021/11/30 08:19:58;;;;;;;0.30;0.10;;;;;;;5.44;100.00;95894.16;4971252;28;20465;-73
2021/11/30 08:22:42;;;;;;;0.85;0.30;;;;;;;5.49;100.00;95881.56;4985486;28;20069;-61
2021/11/30 08:25:28;;;;;;;1.17;0.30;;;;;;;5.68;100.00;95892.63;4986411;28;20387;-63
2021/11/30 08:28:13;;;;;;;0.43;0.22;;;;;;;5.51;100.00;95902.50;5002020;28;20120;-66
2021/11/30 08:30:59;;;;;;;0.40;0.30;;;;;;;5.45;100.00;95887.13;4985823;28;20101;-66
2021/11/30 08:33:43;;;;;;;0.30;0.20;;;;;;;5.41;100.00;95896.97;4985684;28;20093;-63
2021/11/30 08:36:28;;;;;;;0.50;0.30;;;;;;;5.46;100.00;95894.88;4986817;28;20120;-63
2021/11/30 08:39:12;;;;;;;0.60;0.30;;;;;;;5.36;100.00;95906.06;4975193;28;20180;-75
2021/11/30 08:41:58;;;;;;;0.40;0.25;;;;;;;5.24;100.00;95914.69;4985462;28;20076;-64
2021/11/30 08:44:43;;;;;;;1.38;0.25;;;;;;;5.14;100.00;95919.63;4982878;28;20089;-67
2021/11/30 08:47:28;;;;;;;0.55;0.40;;;;;;;4.90;100.00;95927.19;4971001;28;20153;-65
2021/11/30 08:50:16;;;;;;;0.50;0.30;;;;;;;4.76;100.00;95942.88;4986182;28;20052;-65
2021/11/30 08:53:04;;;;;;;0.60;0.20;;;;;;;4.61;100.00;95919.34;4972029;28;20137;-72
2021/11/30 08:55:50;;;;;;;0.43;0.35;;;;;;;4.71;100.00;95931.81;4984956;28;20104;-65
2021/11/30 08:58:34;;;;;;;0.43;0.30;;;;;;;4.72;100.00;95904.66;4983368;28;20506;-74
2021/11/30 09:01:19;;;;;;;;;;;;;;;4.78;100.00;95940.19;4983528;28;20089;-65
2021/11/30 09:04:04;;;;;;;0.55;0.20;;;;;;;4.61;100.00;95907.09;4979092;28;19988;-64
2021/11/30 09:06:49;;;;;;;0.30;0.30;;;;;;;4.65;100.00;95920.84;4994309;28;20061;-66
2021/11/30 09:09:35;;;;;;;0.70;0.40;;;;;;;4.52;100.00;95933.00;4979870;28;20064;-66
2021/11/30 09:12:20;;;;;;;0.50;0.25;;;;;;;4.37;100.00;95968.81;4984061;28;20101;-76
2021/11/30 09:15:06;;;;;;;1.45;0.45;;;;;;;4.34;100.00;95928.78;4984299;28;20133;-64
2021/11/30 09:17:54;;;;;;;0.65;0.20;;;;;;;4.24;100.00;95920.59;4982409;28;20474;-63
2021/11/30 09:20:39;;;;;;;1.02;0.35;;;;;;;4.26;100.00;95918.75;4981747;28;20130;-63
2021/11/30 09:23:24;;;;;;;0.60;0.40;;;;;;;4.23;100.00;95928.53;4986108;28;20057;-62
2021/11/30 09:26:09;;;;;;;1.13;0.30;;;;;;;4.28;100.00;95927.34;4983075;28;20049;-64
2021/11/30 09:28:55;;;;;;;1.27;0.50;;;;;;;4.22;100.00;95898.88;4996689;28;20049;-64
2021/11/30 09:31:40;;;;;;;1.60;0.50;;;;;;;4.19;100.00;95911.28;4982621;28;20552;-65
2021/11/30 09:34:25;;;;;;;0.50;0.40;;;;;;;4.10;100.00;95906.56;4984982;28;20054;-64
2021/11/30 09:37:11;;;;;;;;;;;;;;;4.01;100.00;95922.81;4997027;28;20053;-63
2021/11/30 09:39:59;;;;;;;0.47;0.47;;;;;;;3.99;100.00;95907.19;4985624;28;20473;-72
2021/11/30 09:42:44;;;;;;;0.50;0.30;;;;;;;4.08;100.00;95911.06;4984190;28;20113;-61
2021/11/30 09:45:33;;;;;;;0.70;0.30;;;;;;;3.96;100.00;95880.31;4980335;28;20129;-71
2021/11/30 09:48:19;;;;;;;1.20;0.40;;;;;;;3.98;100.00;95905.50;4991184;28;20200;-62
2021/11/30 09:51:05;;;;;;;0.75;0.45;;;;;;;3.95;100.00;95900.41;4983833;28;20478;-66
2021/11/30 09:53:50;;;;;;;3.03;0.68;;;;;;;3.92;100.00;95902.38;4983353;28;20045;-63
2021/11/30 09:56:35;;;;;;;1.40;0.43;;;;;;;4.01;100.00;95884.38;4996735;28;20430;-66
2021/11/30 09:59:20;;;;;;;0.25;0.25;;;;;;;3.99;100.00;95937.75;4978744;28;20737;-66
2021/11/30 10:02:05;;;;;;;0.98;0.30;;;;;;;3.89;100.00;95921.75;4980900;28;20061;-67
2021/11/30 10:04:50;;;;;;;0.82;0.68;;;;;;;3.95;100.00;95892.56;4977436;28;20124;-70
2021/11/30 10:07:50;;;;;;;0.38;0.30;;;;;;;3.99;100.00;95887.97;4961489;28;20088;-68
2021/11/30 10:10:39;;;;;;;4.18;0.60;;;;;;;4.00;100.00;95884.47;4982544;28;20092;-63
2021/11/30 10:13:23;;;;;;;1.85;0.68;;;;;;;3.90;100.00;95876.25;4996315;28;20132;-65
2021/11/30 10:16:08;;;;;;;;;;;;;;;3.86;100.00;95884.38;4985424;28;20123;-74
2021/11/30 10:18:53;;;;;;;1.00;0.50;;;;;;;3.83;100.00;95860.97;4983333;28;20057;-65
2021/11/30 10:21:38;;;;;;;0.50;0.40;;;;;;;3.72;100.00;95871.22;4982109;28;20169;-67
2021/11/30 10:24:23;;;;;;;1.13;0.52;;;;;;;3.69;100.00;95868.75;4984702;28;20097;-58
2021/11/30 10:27:08;;;;;;;0.32;0.32;;;;;;;3.71;100.00;95877.34;4984045;28;20053;-64
2021/11/30 10:29:52;;;;;;;0.30;0.30;;;;;;;3.81;100.00;95874.13;4985518;28;20053;-56
2021/11/30 10:32:41;;;;;;;0.73;0.40;;;;;;;3.78;100.00;95837.66;4995908;28;20155;-56
2021/11/30 10:35:28;;;;;;;1.15;0.30;;;;;;;3.72;100.00;95831.94;4985415;28;20192;-66
2021/11/30 10:38:13;;;;;;;0.80;0.40;;;;;;;3.70;100.00;95854.72;4983481;28;20066;-58
2021/11/30 10:41:11;;;;;;;0.68;0.40;;;;;;;3.47;100.00;95874.31;4983745;28;20097;-61
2021/11/30 10:44:05;;;;;;;1.42;0.40;;;;;;;3.26;100.00;95824.91;4978819;28;20101;-71
2021/11/30 10:46:49;;;;;;;2.63;0.60;;;;;;;3.02;100.00;95889.00;4991818;28;20120;-59
2021/11/30 10:49:43;;;;;;;1.55;0.68;;;;;;;2.96;100.00;95855.31;4976542;28;20050;-59
2021/11/30 10:52:32;;;;;;;1.27;0.43;;;;;;;2.80;100.00;95833.50;4985714;28;20052;-61
2021/11/30 10:55:19;;;;;;;1.08;0.60;;;;;;;2.68;100.00;95855.06;4979177;28;20057;-57
2021/11/30 10:58:04;;;;;;;0.93;0.47;;;;;;;2.62;100.00;95850.16;4968319;28;20422;-59
2021/11/30 11:00:50;;;;;;;;;;;;;;;2.60;100.00;95867.66;5000313;28;20144;-58
2021/11/30 11:03:35;;;;;;;0.80;0.40;;;;;;;2.55;100.00;95833.09;4992977;28;19976;-63
2021/11/30 11:06:31;;;;;;;0.82;0.43;;;;;;;2.51;100.00;95826.31;4989571;28;20065;-57
2021/11/30 11:09:16;;;;;;;0.90;0.50;;;;;;;2.31;100.00;95856.09;4984605;28;20221;-60
2021/11/30 11:12:04;;;;;;;0.65;0.35;;;;;;;2.11;100.00;95843.19;4982017;28;20061;-59
2021/11/30 11:14:49;;;;;;;1.73;0.50;;;;;;;2.05;100.00;95840.03;4986945;28;20140;-58
2021/11/30 11:17:35;;;;;;;6.53;0.93;;;;;;;2.00;100.00;95855.06;4987011;28;20057;-56
2021/11/30 11:20:20;;;;;;;1.38;1.10;;;;;;;1.97;100.00;95822.13;4988031;28;20096;-55
2021/11/30 11:23:05;;;;;;;1.25;1.10;;;;;;;1.95;100.00;95854.44;4973622;28;20082;-56
2021/11/30 11:25:54;;;;;;;1.92;1.08;;;;;;;1.88;100.00;95855.66;4986059;28;20053;-55
2021/11/30 11:28:40;;;;;;;0.50;0.50;;;;;;;1.79;100.00;95830.88;4986791;28;20096;-57
2021/11/30 11:31:26;;;;;;;1.15;0.63;;;;;;;1.78;100.00;95849.22;4971223;28;20069;-56
2021/11/30 11:34:17;;;;;;;0.40;0.30;;;;;;;1.84;100.00;95833.22;4985017;28;20064;-58
2021/11/30 11:37:05;;;;;;;0.30;0.20;;;;;;;1.95;100.00;95844.00;4989669;28;20057;-57
2021/11/30 11:39:50;;;;;;;0.85;0.30;;;;;;;1.99;100.00;95843.78;4989628;28;20411;-57
2021/11/30 11:42:38;;;;;;;0.50;0.20;;;;;;;2.03;100.00;95820.97;4987478;28;20045;-58
2021/11/30 11:45:25;;;;;;;0.10;0.10;;;;;;;2.06;100.00;95823.44;4980284;28;20085;-59
2021/11/30 11:48:09;;;;;;;3.00;0.52;;;;;;;2.04;100.00;95820.91;4999338;28;20132;-56
2021/11/30 11:50:58;;;;;;;0.60;0.28;;;;;;;2.02;100.00;95840.19;4987453;28;20274;-60
2021/11/30 11:53:54;;;;;;;0.90;0.40;;;;;;;1.95;100.00;95834.41;4987308;28;20073;-59
2021/11/30 11:56:39;;;;;;;1.35;0.90;;;;;;;1.86;100.00;95839.25;4980445;28;20160;-58
2021/11/30 11:59:39;;;;;;;0.77;0.38;;;;;;;1.67;100.00;95807.13;4981256;28;20262;-58
2021/11/30 12:02:28;;;;;;;2.80;1.20;;;;;;;1.50;100.00;95797.47;4981580;28;20072;-65
2021/11/30 12:05:12;;;;;;;1.83;1.00;;;;;;;1.54;100.00;95812.06;4986040;28;20053;-60
2021/11/30 12:08:01;;;;;;;1.30;0.75;;;;;;;1.46;100.00;95842.06;4976420;28;20465;-64
2021/11/30 12:10:49;;;;;;;1.83;0.80;;;;;;;1.46;100.00;95803.75;4980767;28;20065;-54
2021/11/30 12:13:33;;;;;;;1.30;0.63;;;;;;;1.40;100.00;95842.34;4987604;28;20449;-58
2021/11/30 12:16:18;;;;;;;0.52;0.40;;;;;;;1.39;100.00;95827.63;4990892;28;20092;-63
2021/11/30 12:19:26;;;;;;;2.15;0.40;;;;;;;1.38;100.00;95824.16;4992601;28;20147;-65
2021/11/30 12:22:31;;;;;;;1.40;0.38;;;;;;;1.32;100.00;95873.16;4985597;28;20046;-67
2021/11/30 12:25:42;;;;;;;1.20;0.30;;;;;;;1.41;100.00;95818.78;4985524;28;20053;-68
2021/11/30 12:28:38;;;;;;;3.38;0.80;;;;;;;1.36;100.00;95810.34;5000142;28;20056;-62
2021/11/30 12:31:32;;;;;;;2.10;1.10;;;;;;;1.32;100.00;95823.59;4983703;28;20146;-66
2021/11/30 12:34:49;;;;;;;3.83;1.10;;;;;;;1.35;100.00;95831.28;4979181;28;20082;-68
2021/11/30 12:37:37;;;;;;;1.02;0.60;;;;;;;1.25;100.00;95796.97;4924779;29;20133;-67
2021/11/30 12:40:35;;;;;;;1.67;0.60;;;;;;;1.21;100.00;95839.75;4945692;29;20062;-64
2021/11/30 12:43:24;;;;;;;0.17;0.17;;;;;;;1.22;100.00;95812.75;4920824;29;20102;-64
2021/11/30 12:46:12;;;;;;;0.25;0.10;;;;;;;1.20;100.00;95852.84;4933232;29;20126;-70
2021/11/30 12:48:59;;;;;;;0.15;0.13;;;;;;;1.12;100.00;95845.41;4921946;29;20070;-68
2021/11/30 12:51:44;;;;;;;1.23;0.20;;;;;;;1.07;100.00;95836.91;4932362;29;20102;-65
2021/11/30 12:54:30;;;;;;;3.53;0.10;;;;;;;1.08;100.00;95825.59;4920338;29;20562;-63
2021/11/30 12:57:21;;;;;;;0.03;0.03;;;;;;;1.09;100.00;95822.06;4920415;29;20062;-64
2021/11/30 13:00:11;;;;;;;0.20;0.10;;;;;;;1.12;100.00;95855.84;4914482;29;20070;-74
2021/11/30 13:03:23;;;;;;;0.20;0.10;;;;;;;1.12;100.00;95841.94;4937335;29;20551;-66
2021/11/30 13:06:08;;;;;;;0.00;0.00;;;;;;;1.02;100.00;95848.50;4921664;29;20464;-71
2021/11/30 13:09:08;;;;;;;;;;;;;;;1.03;100.00;95855.41;4918773;29;20475;-69
2021/11/30 13:11:59;;;;;;;0.22;0.15;;;;;;;0.99;100.00;95814.75;4929235;29;20061;-71
2021/11/30 13:14:46;;;;;;;0.30;0.10;;;;;;;1.01;100.00;95837.22;4993921;28;20433;-66